Illinois River (Oklahoma), Watts (07195500)

StateOklahomaLatestGood (939 cfs)
RiverIllinois RiverRatingObservedEstimated
Updated2020-02-25 15:30 (1 hour ago)Flood - The river is flooding. Obstacles can be treacherous or deadly. The river should be avoided at this stage for casual trips and definitely for the inexperienced. Trips should be attempted only with protective gear and equipment.Flood(none)2254
Discharge939 cfs (median: 436 cfs)High - The river is high and potentially dangerous, especially for the young and / or inexperienced. Normal stream obstacles are sometimes difficult to navigate. Extended distances can be attempted, but canoe travel may not be advisable.High(none)1122
Height4.17 feetGood - Conditions are ideal for a canoe or kayak. Boats typically will drag on fewer than one-quarter of riffles, if at all, and portages are unnecessary or rare. Normal float lengths can be attempted without a problem.Good(none)574
TrendSteady (rising over 24 hours)Low - River is low but can still be floated. Some riffles are okay but most come with significant dragging and might need a portage. Float lengths should be reduced to accommodate low flow, dragging, and portages.Low(none)371
USGSExternal icon USGS Site (External icon Google Maps)Poor - River is too low to float comfortably. Most or all riffles will drag or must be portaged and some obstacles (such as slick shelf rock) cause undue problems. Avoid the river at this stage for casual paddling trips.Poor(none)178

Trending Data

Plot Image

Trips for Illinois River (Oklahoma), Watts (07195500)

DateStartEndDistanceConditionDischargeHeightFishingDetails

A total of 0 rows are displayed.

Condition Descriptions

Fishing Conditions

Fish Species

Notes

Classic Trip List

The classic River Trips application is still available for use. It is updated with the new system using a data retrofit. It is no longer maintained. The original River Trips application is no longer updated (as of 1 Dec 2016) but can be checked for errors or for the condition of the data before it was converted to the new system.

Gauge Data Table

ObservationHeightDischargeMaximum
Discharge
Minimum
Discharge
Mean
Discharge
P05P10P20P25P50
(Median)
P75P80P90P95
2020-02-25 15:30 4.17 939 14000 (2018) 62 (1964) 1040 110 161 235 263 436 754 852 1530 5220
2020-02-25 14:30 4.17 939 14000 (2018) 62 (1964) 1040 110 161 235 263 436 754 852 1530 5220
2020-02-25 13:30 4.18 945 14000 (2018) 62 (1964) 1040 110 161 235 263 436 754 852 1530 5220
2020-02-25 12:30 4.18 945 14000 (2018) 62 (1964) 1040 110 161 235 263 436 754 852 1530 5220
2020-02-25 11:30 4.19 951 14000 (2018) 62 (1964) 1040 110 161 235 263 436 754 852 1530 5220
2020-02-25 10:30 4.19 951 14000 (2018) 62 (1964) 1040 110 161 235 263 436 754 852 1530 5220
2020-02-25 09:30 4.20 957 14000 (2018) 62 (1964) 1040 110 161 235 263 436 754 852 1530 5220
2020-02-25 08:30 4.20 957 14000 (2018) 62 (1964) 1040 110 161 235 263 436 754 852 1530 5220
2020-02-25 07:30 4.21 963 14000 (2018) 62 (1964) 1040 110 161 235 263 436 754 852 1530 5220
2020-02-25 06:30 4.22 969 14000 (2018) 62 (1964) 1040 110 161 235 263 436 754 852 1530 5220
2020-02-25 05:30 4.22 969 14000 (2018) 62 (1964) 1040 110 161 235 263 436 754 852 1530 5220
2020-02-25 04:30 4.22 969 14000 (2018) 62 (1964) 1040 110 161 235 263 436 754 852 1530 5220
2020-02-25 03:30 4.21 963 14000 (2018) 62 (1964) 1040 110 161 235 263 436 754 852 1530 5220
2020-02-25 02:30 4.21 963 14000 (2018) 62 (1964) 1040 110 161 235 263 436 754 852 1530 5220
2020-02-25 01:30 4.21 963 14000 (2018) 62 (1964) 1040 110 161 235 263 436 754 852 1530 5220
2020-02-25 00:30 4.20 957 14000 (2018) 62 (1964) 1040 110 161 235 263 436 754 852 1530 5220
2020-02-24 23:30 4.20 957 21400 (2018) 63 (1964) 1290 106 164 240 261 409 853 1010 1810 9930
2020-02-24 22:30 4.19 951 21400 (2018) 63 (1964) 1290 106 164 240 261 409 853 1010 1810 9930
2020-02-24 21:30 4.18 945 21400 (2018) 63 (1964) 1290 106 164 240 261 409 853 1010 1810 9930
2020-02-24 20:30 4.18 945 21400 (2018) 63 (1964) 1290 106 164 240 261 409 853 1010 1810 9930
2020-02-24 19:30 4.17 939 21400 (2018) 63 (1964) 1290 106 164 240 261 409 853 1010 1810 9930
2020-02-24 18:30 4.15 927 21400 (2018) 63 (1964) 1290 106 164 240 261 409 853 1010 1810 9930
2020-02-24 17:30 4.14 921 21400 (2018) 63 (1964) 1290 106 164 240 261 409 853 1010 1810 9930
2020-02-24 16:30 4.14 921 21400 (2018) 63 (1964) 1290 106 164 240 261 409 853 1010 1810 9930
2020-02-24 15:30 4.13 915 21400 (2018) 63 (1964) 1290 106 164 240 261 409 853 1010 1810 9930
2020-02-24 14:30 4.12 909 21400 (2018) 63 (1964) 1290 106 164 240 261 409 853 1010 1810 9930
2020-02-24 13:30 4.12 909 21400 (2018) 63 (1964) 1290 106 164 240 261 409 853 1010 1810 9930
2020-02-24 12:30 4.11 903 21400 (2018) 63 (1964) 1290 106 164 240 261 409 853 1010 1810 9930
2020-02-24 11:30 4.10 898 21400 (2018) 63 (1964) 1290 106 164 240 261 409 853 1010 1810 9930
2020-02-24 10:30 4.10 898 21400 (2018) 63 (1964) 1290 106 164 240 261 409 853 1010 1810 9930
2020-02-24 09:30 4.10 898 21400 (2018) 63 (1964) 1290 106 164 240 261 409 853 1010 1810 9930
2020-02-24 08:30 4.09 892 21400 (2018) 63 (1964) 1290 106 164 240 261 409 853 1010 1810 9930
2020-02-24 07:30 4.08 886 21400 (2018) 63 (1964) 1290 106 164 240 261 409 853 1010 1810 9930
2020-02-24 06:30 4.08 886 21400 (2018) 63 (1964) 1290 106 164 240 261 409 853 1010 1810 9930
2020-02-24 05:30 4.08 886 21400 (2018) 63 (1964) 1290 106 164 240 261 409 853 1010 1810 9930
2020-02-24 04:30 4.07 880 21400 (2018) 63 (1964) 1290 106 164 240 261 409 853 1010 1810 9930
2020-02-24 03:30 4.07 880 21400 (2018) 63 (1964) 1290 106 164 240 261 409 853 1010 1810 9930
2020-02-24 02:30 4.06 875 21400 (2018) 63 (1964) 1290 106 164 240 261 409 853 1010 1810 9930
2020-02-24 01:30 4.05 869 21400 (2018) 63 (1964) 1290 106 164 240 261 409 853 1010 1810 9930
2020-02-24 00:30 4.05 869 21400 (2018) 63 (1964) 1290 106 164 240 261 409 853 1010 1810 9930
2020-02-23 23:30 4.05 869 11400 (1975) 62 (1964) 991 110 155 234 260 438 959 1210 2350 3370
2020-02-23 22:30 4.05 869 11400 (1975) 62 (1964) 991 110 155 234 260 438 959 1210 2350 3370
2020-02-23 21:30 4.04 863 11400 (1975) 62 (1964) 991 110 155 234 260 438 959 1210 2350 3370
2020-02-23 20:30 4.05 869 11400 (1975) 62 (1964) 991 110 155 234 260 438 959 1210 2350 3370
2020-02-23 19:30 4.05 869 11400 (1975) 62 (1964) 991 110 155 234 260 438 959 1210 2350 3370
2020-02-23 18:30 4.05 869 11400 (1975) 62 (1964) 991 110 155 234 260 438 959 1210 2350 3370
2020-02-23 17:30 4.05 869 11400 (1975) 62 (1964) 991 110 155 234 260 438 959 1210 2350 3370
2020-02-23 16:30 4.05 869 11400 (1975) 62 (1964) 991 110 155 234 260 438 959 1210 2350 3370
2020-02-23 15:30 4.05 869 11400 (1975) 62 (1964) 991 110 155 234 260 438 959 1210 2350 3370
2020-02-23 14:30 4.06 875 11400 (1975) 62 (1964) 991 110 155 234 260 438 959 1210 2350 3370
2020-02-23 13:30 4.06 875 11400 (1975) 62 (1964) 991 110 155 234 260 438 959 1210 2350 3370
2020-02-23 12:30 4.06 875 11400 (1975) 62 (1964) 991 110 155 234 260 438 959 1210 2350 3370
2020-02-23 11:30 4.06 875 11400 (1975) 62 (1964) 991 110 155 234 260 438 959 1210 2350 3370
2020-02-23 10:30 4.06 875 11400 (1975) 62 (1964) 991 110 155 234 260 438 959 1210 2350 3370
2020-02-23 09:30 4.06 875 11400 (1975) 62 (1964) 991 110 155 234 260 438 959 1210 2350 3370
2020-02-23 08:30 4.06 875 11400 (1975) 62 (1964) 991 110 155 234 260 438 959 1210 2350 3370
2020-02-23 07:30 4.06 875 11400 (1975) 62 (1964) 991 110 155 234 260 438 959 1210 2350 3370
2020-02-23 06:30 4.06 875 11400 (1975) 62 (1964) 991 110 155 234 260 438 959 1210 2350 3370
2020-02-23 05:30 4.06 875 11400 (1975) 62 (1964) 991 110 155 234 260 438 959 1210 2350 3370
2020-02-23 04:30 4.06 875 11400 (1975) 62 (1964) 991 110 155 234 260 438 959 1210 2350 3370
2020-02-23 03:30 4.07 880 11400 (1975) 62 (1964) 991 110 155 234 260 438 959 1210 2350 3370
2020-02-23 02:30 4.07 880 11400 (1975) 62 (1964) 991 110 155 234 260 438 959 1210 2350 3370
2020-02-23 01:30 4.07 880 11400 (1975) 62 (1964) 991 110 155 234 260 438 959 1210 2350 3370
2020-02-23 00:30 4.07 880 11400 (1975) 62 (1964) 991 110 155 234 260 438 959 1210 2350 3370
2020-02-22 23:30 4.07 880 6140 (1975) 63 (1964) 877 107 170 258 277 437 785 992 2740 4410
2020-02-22 22:30 4.08 886 6140 (1975) 63 (1964) 877 107 170 258 277 437 785 992 2740 4410
2020-02-22 21:30 4.08 886 6140 (1975) 63 (1964) 877 107 170 258 277 437 785 992 2740 4410
2020-02-22 20:30 4.09 892 6140 (1975) 63 (1964) 877 107 170 258 277 437 785 992 2740 4410
2020-02-22 19:30 4.09 892 6140 (1975) 63 (1964) 877 107 170 258 277 437 785 992 2740 4410
2020-02-22 18:30 4.10 898 6140 (1975) 63 (1964) 877 107 170 258 277 437 785 992 2740 4410
2020-02-22 17:30 4.11 903 6140 (1975) 63 (1964) 877 107 170 258 277 437 785 992 2740 4410
2020-02-22 16:30 4.11 903 6140 (1975) 63 (1964) 877 107 170 258 277 437 785 992 2740 4410
2020-02-22 15:30 4.11 903 6140 (1975) 63 (1964) 877 107 170 258 277 437 785 992 2740 4410
2020-02-22 14:30 4.12 909 6140 (1975) 63 (1964) 877 107 170 258 277 437 785 992 2740 4410
2020-02-22 13:30 4.12 909 6140 (1975) 63 (1964) 877 107 170 258 277 437 785 992 2740 4410
2020-02-22 12:30 4.12 909 6140 (1975) 63 (1964) 877 107 170 258 277 437 785 992 2740 4410
2020-02-22 11:30 4.13 915 6140 (1975) 63 (1964) 877 107 170 258 277 437 785 992 2740 4410
2020-02-22 10:30 4.14 921 6140 (1975) 63 (1964) 877 107 170 258 277 437 785 992 2740 4410
2020-02-22 09:30 4.14 921 6140 (1975) 63 (1964) 877 107 170 258 277 437 785 992 2740 4410
2020-02-22 08:30 4.14 921 6140 (1975) 63 (1964) 877 107 170 258 277 437 785 992 2740 4410
2020-02-22 07:30 6140 (1975) 63 (1964) 877 107 170 258 277 437 785 992 2740 4410
2020-02-22 06:30 6140 (1975) 63 (1964) 877 107 170 258 277 437 785 992 2740 4410
2020-02-22 05:30 6140 (1975) 63 (1964) 877 107 170 258 277 437 785 992 2740 4410
2020-02-22 04:30 6140 (1975) 63 (1964) 877 107 170 258 277 437 785 992 2740 4410
2020-02-22 03:30 6140 (1975) 63 (1964) 877 107 170 258 277 437 785 992 2740 4410
2020-02-22 02:30 6140 (1975) 63 (1964) 877 107 170 258 277 437 785 992 2740 4410
2020-02-22 01:30 6140 (1975) 63 (1964) 877 107 170 258 277 437 785 992 2740 4410
2020-02-22 00:30 6140 (1975) 63 (1964) 877 107 170 258 277 437 785 992 2740 4410
2020-02-21 23:30 15100 (1997) 63 (1964) 879 106 155 250 260 424 689 855 1420 3040
2020-02-21 22:30 15100 (1997) 63 (1964) 879 106 155 250 260 424 689 855 1420 3040
2020-02-21 21:30 15100 (1997) 63 (1964) 879 106 155 250 260 424 689 855 1420 3040
2020-02-21 20:30 15100 (1997) 63 (1964) 879 106 155 250 260 424 689 855 1420 3040
2020-02-21 19:30 15100 (1997) 63 (1964) 879 106 155 250 260 424 689 855 1420 3040
2020-02-21 18:30 15100 (1997) 63 (1964) 879 106 155 250 260 424 689 855 1420 3040
2020-02-21 17:30 15100 (1997) 63 (1964) 879 106 155 250 260 424 689 855 1420 3040
2020-02-21 16:30 15100 (1997) 63 (1964) 879 106 155 250 260 424 689 855 1420 3040
2020-02-21 15:30 15100 (1997) 63 (1964) 879 106 155 250 260 424 689 855 1420 3040
2020-02-21 14:30 15100 (1997) 63 (1964) 879 106 155 250 260 424 689 855 1420 3040
2020-02-21 13:30 15100 (1997) 63 (1964) 879 106 155 250 260 424 689 855 1420 3040
2020-02-21 12:30 15100 (1997) 63 (1964) 879 106 155 250 260 424 689 855 1420 3040
2020-02-21 11:30 15100 (1997) 63 (1964) 879 106 155 250 260 424 689 855 1420 3040
2020-02-21 10:30 15100 (1997) 63 (1964) 879 106 155 250 260 424 689 855 1420 3040
2020-02-21 09:30 15100 (1997) 63 (1964) 879 106 155 250 260 424 689 855 1420 3040
2020-02-21 08:30 77200 15100 (1997) 63 (1964) 879 106 155 250 260 424 689 855 1420 3040
2020-02-21 07:30 18.50 21100 15100 (1997) 63 (1964) 879 106 155 250 260 424 689 855 1420 3040
2020-02-21 06:30 11.80 9040 15100 (1997) 63 (1964) 879 106 155 250 260 424 689 855 1420 3040
2020-02-21 05:30 6.01 2350 15100 (1997) 63 (1964) 879 106 155 250 260 424 689 855 1420 3040
2020-02-21 04:30 4.26 993 15100 (1997) 63 (1964) 879 106 155 250 260 424 689 855 1420 3040
2020-02-21 03:30 4.26 993 15100 (1997) 63 (1964) 879 106 155 250 260 424 689 855 1420 3040
2020-02-21 02:30 4.26 993 15100 (1997) 63 (1964) 879 106 155 250 260 424 689 855 1420 3040
2020-02-21 01:30 4.26 993 15100 (1997) 63 (1964) 879 106 155 250 260 424 689 855 1420 3040
2020-02-21 00:30 4.27 999 15100 (1997) 63 (1964) 879 106 155 250 260 424 689 855 1420 3040
2020-02-20 23:30 4.27 999 1590 (2008) 64 (1964) 549 106 161 252 271 447 652 766 1160 1500
2020-02-20 22:30 4.27 999 1590 (2008) 64 (1964) 549 106 161 252 271 447 652 766 1160 1500
2020-02-20 21:30 4.28 1010 1590 (2008) 64 (1964) 549 106 161 252 271 447 652 766 1160 1500
2020-02-20 20:30 4.29 1010 1590 (2008) 64 (1964) 549 106 161 252 271 447 652 766 1160 1500
2020-02-20 19:30 4.30 1020 1590 (2008) 64 (1964) 549 106 161 252 271 447 652 766 1160 1500
2020-02-20 18:30 4.30 1020 1590 (2008) 64 (1964) 549 106 161 252 271 447 652 766 1160 1500
2020-02-20 17:30 4.31 1020 1590 (2008) 64 (1964) 549 106 161 252 271 447 652 766 1160 1500
2020-02-20 16:30 4.32 1030 1590 (2008) 64 (1964) 549 106 161 252 271 447 652 766 1160 1500
2020-02-20 15:30 4.33 1040 1590 (2008) 64 (1964) 549 106 161 252 271 447 652 766 1160 1500
2020-02-20 14:30 4.34 1040 1590 (2008) 64 (1964) 549 106 161 252 271 447 652 766 1160 1500
2020-02-20 13:30 4.34 1040 1590 (2008) 64 (1964) 549 106 161 252 271 447 652 766 1160 1500
2020-02-20 12:30 4.34 1040 1590 (2008) 64 (1964) 549 106 161 252 271 447 652 766 1160 1500
2020-02-20 11:30 4.35 1050 1590 (2008) 64 (1964) 549 106 161 252 271 447 652 766 1160 1500
2020-02-20 10:30 4.35 1050 1590 (2008) 64 (1964) 549 106 161 252 271 447 652 766 1160 1500
2020-02-20 09:30 4.36 1060 1590 (2008) 64 (1964) 549 106 161 252 271 447 652 766 1160 1500
2020-02-20 08:30 4.37 1060 1590 (2008) 64 (1964) 549 106 161 252 271 447 652 766 1160 1500
2020-02-20 07:30 4.37 1060 1590 (2008) 64 (1964) 549 106 161 252 271 447 652 766 1160 1500
2020-02-20 06:30 4.38 1070 1590 (2008) 64 (1964) 549 106 161 252 271 447 652 766 1160 1500
2020-02-20 05:30 4.38 1070 1590 (2008) 64 (1964) 549 106 161 252 271 447 652 766 1160 1500
2020-02-20 04:30 4.39 1070 1590 (2008) 64 (1964) 549 106 161 252 271 447 652 766 1160 1500
2020-02-20 03:30 4.39 1070 1590 (2008) 64 (1964) 549 106 161 252 271 447 652 766 1160 1500
2020-02-20 02:30 4.40 1080 1590 (2008) 64 (1964) 549 106 161 252 271 447 652 766 1160 1500
2020-02-20 01:30 4.40 1080 1590 (2008) 64 (1964) 549 106 161 252 271 447 652 766 1160 1500
2020-02-20 00:30 4.40 1080 1590 (2008) 64 (1964) 549 106 161 252 271 447 652 766 1160 1500
2020-02-19 23:30 4.40 1080 2190 (2008) 64 (1964) 534 107 165 249 276 444 661 708 869 1620
2020-02-19 22:30 4.41 1090 2190 (2008) 64 (1964) 534 107 165 249 276 444 661 708 869 1620
2020-02-19 21:30 4.42 1090 2190 (2008) 64 (1964) 534 107 165 249 276 444 661 708 869 1620
2020-02-19 20:30 4.43 1100 2190 (2008) 64 (1964) 534 107 165 249 276 444 661 708 869 1620
2020-02-19 19:30 4.44 1110 2190 (2008) 64 (1964) 534 107 165 249 276 444 661 708 869 1620
2020-02-19 18:30 4.45 1110 2190 (2008) 64 (1964) 534 107 165 249 276 444 661 708 869 1620
2020-02-19 17:30 4.46 1120 2190 (2008) 64 (1964) 534 107 165 249 276 444 661 708 869 1620
2020-02-19 16:30 4.47 1130 2190 (2008) 64 (1964) 534 107 165 249 276 444 661 708 869 1620
2020-02-19 15:30 4.47 1130 2190 (2008) 64 (1964) 534 107 165 249 276 444 661 708 869 1620
2020-02-19 14:30 4.48 1130 2190 (2008) 64 (1964) 534 107 165 249 276 444 661 708 869 1620
2020-02-19 13:30 4.49 1140 2190 (2008) 64 (1964) 534 107 165 249 276 444 661 708 869 1620
2020-02-19 12:30 4.49 1140 2190 (2008) 64 (1964) 534 107 165 249 276 444 661 708 869 1620
2020-02-19 11:30 4.50 1150 2190 (2008) 64 (1964) 534 107 165 249 276 444 661 708 869 1620
2020-02-19 10:30 4.51 1150 2190 (2008) 64 (1964) 534 107 165 249 276 444 661 708 869 1620
2020-02-19 09:30 4.52 1160 2190 (2008) 64 (1964) 534 107 165 249 276 444 661 708 869 1620
2020-02-19 08:30 4.52 1160 2190 (2008) 64 (1964) 534 107 165 249 276 444 661 708 869 1620
2020-02-19 07:30 4.53 1170 2190 (2008) 64 (1964) 534 107 165 249 276 444 661 708 869 1620
2020-02-19 06:30 4.54 1170 2190 (2008) 64 (1964) 534 107 165 249 276 444 661 708 869 1620
2020-02-19 05:30 4.55 1180 2190 (2008) 64 (1964) 534 107 165 249 276 444 661 708 869 1620
2020-02-19 04:30 4.55 1180 2190 (2008) 64 (1964) 534 107 165 249 276 444 661 708 869 1620
2020-02-19 03:30 4.56 1190 2190 (2008) 64 (1964) 534 107 165 249 276 444 661 708 869 1620
2020-02-19 02:30 4.57 1190 2190 (2008) 64 (1964) 534 107 165 249 276 444 661 708 869 1620
2020-02-19 01:30 4.57 1190 2190 (2008) 64 (1964) 534 107 165 249 276 444 661 708 869 1620
2020-02-19 00:30 4.58 1200 2190 (2008) 64 (1964) 534 107 165 249 276 444 661 708 869 1620
2020-02-18 23:30 4.59 1210 4290 (2008) 65 (1964) 602 106 174 248 263 437 710 751 1120 1930
2020-02-18 22:30 4.59 1210 4290 (2008) 65 (1964) 602 106 174 248 263 437 710 751 1120 1930
2020-02-18 21:30 4.60 1210 4290 (2008) 65 (1964) 602 106 174 248 263 437 710 751 1120 1930
2020-02-18 20:30 4.61 1220 4290 (2008) 65 (1964) 602 106 174 248 263 437 710 751 1120 1930
2020-02-18 19:30 4.62 1230 4290 (2008) 65 (1964) 602 106 174 248 263 437 710 751 1120 1930
2020-02-18 18:30 4.64 1240 4290 (2008) 65 (1964) 602 106 174 248 263 437 710 751 1120 1930
2020-02-18 17:30 4.64 1240 4290 (2008) 65 (1964) 602 106 174 248 263 437 710 751 1120 1930
2020-02-18 16:30 4.64 1240 4290 (2008) 65 (1964) 602 106 174 248 263 437 710 751 1120 1930
2020-02-18 15:30 4.65 1250 4290 (2008) 65 (1964) 602 106 174 248 263 437 710 751 1120 1930
2020-02-18 14:30 4.66 1260 4290 (2008) 65 (1964) 602 106 174 248 263 437 710 751 1120 1930
2020-02-18 13:30 4.66 1260 4290 (2008) 65 (1964) 602 106 174 248 263 437 710 751 1120 1930
2020-02-18 12:30 4.67 1260 4290 (2008) 65 (1964) 602 106 174 248 263 437 710 751 1120 1930
2020-02-18 11:30 4.67 1260 4290 (2008) 65 (1964) 602 106 174 248 263 437 710 751 1120 1930
2020-02-18 10:30 4.67 1260 4290 (2008) 65 (1964) 602 106 174 248 263 437 710 751 1120 1930
2020-02-18 09:30 4.68 1270 4290 (2008) 65 (1964) 602 106 174 248 263 437 710 751 1120 1930
2020-02-18 08:30 4.69 1280 4290 (2008) 65 (1964) 602 106 174 248 263 437 710 751 1120 1930
2020-02-18 07:30 4.70 1280 4290 (2008) 65 (1964) 602 106 174 248 263 437 710 751 1120 1930
2020-02-18 06:30 4.70 1280 4290 (2008) 65 (1964) 602 106 174 248 263 437 710 751 1120 1930
2020-02-18 05:30 4.71 1290 4290 (2008) 65 (1964) 602 106 174 248 263 437 710 751 1120 1930
2020-02-18 04:30 4.71 1290 4290 (2008) 65 (1964) 602 106 174 248 263 437 710 751 1120 1930
2020-02-18 03:30 4.72 1300 4290 (2008) 65 (1964) 602 106 174 248 263 437 710 751 1120 1930
2020-02-18 02:30 4.73 1310 4290 (2008) 65 (1964) 602 106 174 248 263 437 710 751 1120 1930
2020-02-18 01:30 4.74 1310 4290 (2008) 65 (1964) 602 106 174 248 263 437 710 751 1120 1930
2020-02-18 00:30 4.74 1310 4290 (2008) 65 (1964) 602 106 174 248 263 437 710 751 1120 1930

A total of 184 rows are displayed for years 1956 through 2019.